sensor_id;sensor_type;location;lat;lon;timestamp;P1;durP1;ratioP1;P2;durP2;ratioP2
33162;SDS011;29282;45.656;11.302;2022-08-19T00:01:29;5.15;;;1.58;;
33162;SDS011;29282;45.656;11.302;2022-08-19T00:03:59;5.28;;;1.42;;
33162;SDS011;29282;45.656;11.302;2022-08-19T00:06:27;5.95;;;1.60;;
33162;SDS011;29282;45.656;11.302;2022-08-19T00:08:54;2.50;;;1.42;;
33162;SDS011;29282;45.656;11.302;2022-08-19T00:11:20;3.10;;;1.17;;
33162;SDS011;29282;45.656;11.302;2022-08-19T00:13:46;3.80;;;1.60;;
33162;SDS011;29282;45.656;11.302;2022-08-19T00:16:13;3.60;;;1.38;;
33162;SDS011;29282;45.656;11.302;2022-08-19T00:18:39;4.47;;;1.48;;
33162;SDS011;29282;45.656;11.302;2022-08-19T00:21:05;5.15;;;1.58;;
33162;SDS011;29282;45.656;11.302;2022-08-19T00:23:34;3.53;;;1.50;;
33162;SDS011;29282;45.656;11.302;2022-08-19T00:26:02;3.78;;;1.38;;
33162;SDS011;29282;45.656;11.302;2022-08-19T00:28:28;4.03;;;1.52;;
33162;SDS011;29282;45.656;11.302;2022-08-19T00:30:54;3.45;;;1.20;;
33162;SDS011;29282;45.656;11.302;2022-08-19T00:33:20;4.40;;;1.70;;
33162;SDS011;29282;45.656;11.302;2022-08-19T00:35:46;6.97;;;1.23;;
33162;SDS011;29282;45.656;11.302;2022-08-19T00:38:11;2.63;;;1.55;;
33162;SDS011;29282;45.656;11.302;2022-08-19T00:40:37;2.13;;;1.33;;
33162;SDS011;29282;45.656;11.302;2022-08-19T00:43:07;3.38;;;1.35;;
33162;SDS011;29282;45.656;11.302;2022-08-19T00:45:38;4.35;;;1.65;;
33162;SDS011;29282;45.656;11.302;2022-08-19T00:48:07;4.22;;;1.42;;
33162;SDS011;29282;45.656;11.302;2022-08-19T00:50:33;5.18;;;1.60;;
33162;SDS011;29282;45.656;11.302;2022-08-19T00:52:59;2.53;;;1.60;;
33162;SDS011;29282;45.656;11.302;2022-08-19T00:55:29;2.13;;;1.30;;
33162;SDS011;29282;45.656;11.302;2022-08-19T00:58:05;2.80;;;1.60;;
33162;SDS011;29282;45.656;11.302;2022-08-19T01:00:37;2.47;;;1.25;;
33162;SDS011;29282;45.656;11.302;2022-08-19T01:03:08;3.13;;;1.55;;
33162;SDS011;29282;45.656;11.302;2022-08-19T01:05:36;2.28;;;1.50;;
33162;SDS011;29282;45.656;11.302;2022-08-19T01:08:03;4.40;;;1.40;;
33162;SDS011;29282;45.656;11.302;2022-08-19T01:10:33;4.30;;;1.67;;
33162;SDS011;29282;45.656;11.302;2022-08-19T01:13:06;4.30;;;1.50;;
33162;SDS011;29282;45.656;11.302;2022-08-19T01:15:34;3.13;;;1.15;;
33162;SDS011;29282;45.656;11.302;2022-08-19T01:18:17;6.03;;;1.45;;
33162;SDS011;29282;45.656;11.302;2022-08-19T01:20:45;1.83;;;1.17;;
33162;SDS011;29282;45.656;11.302;2022-08-19T01:23:11;3.85;;;1.77;;
33162;SDS011;29282;45.656;11.302;2022-08-19T01:25:42;4.05;;;1.23;;
33162;SDS011;29282;45.656;11.302;2022-08-19T01:28:19;2.88;;;1.38;;
33162;SDS011;29282;45.656;11.302;2022-08-19T01:30:51;2.85;;;1.30;;
33162;SDS011;29282;45.656;11.302;2022-08-19T01:33:20;3.88;;;1.38;;
33162;SDS011;29282;45.656;11.302;2022-08-19T01:35:46;3.53;;;1.27;;
33162;SDS011;29282;45.656;11.302;2022-08-19T01:38:26;3.78;;;1.20;;
33162;SDS011;29282;45.656;11.302;2022-08-19T01:40:52;3.38;;;1.50;;
33162;SDS011;29282;45.656;11.302;2022-08-19T01:43:18;1.50;;;1.23;;
33162;SDS011;29282;45.656;11.302;2022-08-19T01:45:46;2.50;;;1.10;;
33162;SDS011;29282;45.656;11.302;2022-08-19T01:48:12;2.90;;;1.40;;
33162;SDS011;29282;45.656;11.302;2022-08-19T01:50:38;2.72;;;1.50;;
33162;SDS011;29282;45.656;11.302;2022-08-19T01:53:05;2.65;;;1.40;;
33162;SDS011;29282;45.656;11.302;2022-08-19T01:55:33;6.43;;;1.40;;
33162;SDS011;29282;45.656;11.302;2022-08-19T01:58:02;2.08;;;1.20;;
33162;SDS011;29282;45.656;11.302;2022-08-19T02:00:30;3.58;;;1.35;;
33162;SDS011;29282;45.656;11.302;2022-08-19T02:02:57;2.92;;;1.20;;
33162;SDS011;29282;45.656;11.302;2022-08-19T02:05:23;3.80;;;1.58;;
33162;SDS011;29282;45.656;11.302;2022-08-19T02:07:49;2.67;;;1.40;;
33162;SDS011;29282;45.656;11.302;2022-08-19T02:10:17;4.43;;;1.50;;
33162;SDS011;29282;45.656;11.302;2022-08-19T02:12:46;3.83;;;1.52;;
33162;SDS011;29282;45.656;11.302;2022-08-19T02:15:12;3.60;;;1.60;;
33162;SDS011;29282;45.656;11.302;2022-08-19T02:17:37;2.55;;;1.20;;
33162;SDS011;29282;45.656;11.302;2022-08-19T02:20:05;2.60;;;1.40;;
33162;SDS011;29282;45.656;11.302;2022-08-19T02:22:31;4.65;;;1.63;;
33162;SDS011;29282;45.656;11.302;2022-08-19T02:24:58;5.30;;;1.20;;
33162;SDS011;29282;45.656;11.302;2022-08-19T02:27:23;2.88;;;1.40;;
33162;SDS011;29282;45.656;11.302;2022-08-19T02:29:50;4.00;;;1.58;;
33162;SDS011;29282;45.656;11.302;2022-08-19T02:32:19;6.78;;;1.33;;
33162;SDS011;29282;45.656;11.302;2022-08-19T02:34:46;3.45;;;1.17;;
33162;SDS011;29282;45.656;11.302;2022-08-19T02:37:11;2.35;;;1.27;;
33162;SDS011;29282;45.656;11.302;2022-08-19T02:39:55;2.70;;;1.10;;
33162;SDS011;29282;45.656;11.302;2022-08-19T02:42:21;3.00;;;1.40;;
33162;SDS011;29282;45.656;11.302;2022-08-19T02:44:46;2.88;;;1.27;;
33162;SDS011;29282;45.656;11.302;2022-08-19T02:47:12;2.17;;;1.33;;
33162;SDS011;29282;45.656;11.302;2022-08-19T02:49:40;2.92;;;1.27;;
33162;SDS011;29282;45.656;11.302;2022-08-19T02:52:06;4.65;;;1.30;;
33162;SDS011;29282;45.656;11.302;2022-08-19T02:54:31;3.90;;;1.50;;
33162;SDS011;29282;45.656;11.302;2022-08-19T02:56:57;4.57;;;1.38;;
33162;SDS011;29282;45.656;11.302;2022-08-19T02:59:22;4.28;;;1.58;;
33162;SDS011;29282;45.656;11.302;2022-08-19T03:01:48;2.63;;;1.30;;
33162;SDS011;29282;45.656;11.302;2022-08-19T03:04:14;2.38;;;1.33;;
33162;SDS011;29282;45.656;11.302;2022-08-19T03:06:41;3.45;;;1.30;;
33162;SDS011;29282;45.656;11.302;2022-08-19T03:09:10;2.58;;;1.55;;
33162;SDS011;29282;45.656;11.302;2022-08-19T03:11:36;3.78;;;1.48;;
33162;SDS011;29282;45.656;11.302;2022-08-19T03:14:06;2.88;;;1.50;;
33162;SDS011;29282;45.656;11.302;2022-08-19T03:16:35;2.35;;;1.40;;
33162;SDS011;29282;45.656;11.302;2022-08-19T03:19:07;5.10;;;1.20;;
33162;SDS011;29282;45.656;11.302;2022-08-19T03:21:33;4.13;;;1.30;;
33162;SDS011;29282;45.656;11.302;2022-08-19T03:24:00;3.08;;;1.30;;
33162;SDS011;29282;45.656;11.302;2022-08-19T03:26:28;2.20;;;1.30;;
33162;SDS011;29282;45.656;11.302;2022-08-19T03:28:54;2.35;;;1.45;;
33162;SDS011;29282;45.656;11.302;2022-08-19T03:31:21;1.95;;;1.35;;
33162;SDS011;29282;45.656;11.302;2022-08-19T03:33:49;2.85;;;1.20;;
33162;SDS011;29282;45.656;11.302;2022-08-19T03:36:18;2.70;;;1.27;;
33162;SDS011;29282;45.656;11.302;2022-08-19T03:38:49;2.08;;;1.25;;
33162;SDS011;29282;45.656;11.302;2022-08-19T03:41:17;5.78;;;1.60;;
33162;SDS011;29282;45.656;11.302;2022-08-19T03:43:46;3.55;;;1.50;;
33162;SDS011;29282;45.656;11.302;2022-08-19T03:46:14;3.58;;;1.80;;
33162;SDS011;29282;45.656;11.302;2022-08-19T03:48:43;3.72;;;1.30;;
33162;SDS011;29282;45.656;11.302;2022-08-19T03:51:19;3.05;;;1.17;;
33162;SDS011;29282;45.656;11.302;2022-08-19T03:53:50;2.28;;;1.00;;
33162;SDS011;29282;45.656;11.302;2022-08-19T03:56:16;2.00;;;1.35;;
33162;SDS011;29282;45.656;11.302;2022-08-19T03:58:43;4.40;;;1.38;;
33162;SDS011;29282;45.656;11.302;2022-08-19T04:01:10;5.63;;;1.42;;
33162;SDS011;29282;45.656;11.302;2022-08-19T04:03:39;4.55;;;1.38;;
33162;SDS011;29282;45.656;11.302;2022-08-19T04:06:09;3.13;;;1.30;;
33162;SDS011;29282;45.656;11.302;2022-08-19T04:08:36;4.15;;;1.40;;
33162;SDS011;29282;45.656;11.302;2022-08-19T04:11:05;3.83;;;1.20;;
33162;SDS011;29282;45.656;11.302;2022-08-19T04:13:32;2.97;;;1.20;;
33162;SDS011;29282;45.656;11.302;2022-08-19T04:15:59;3.80;;;1.40;;
33162;SDS011;29282;45.656;11.302;2022-08-19T04:18:25;2.58;;;1.20;;
33162;SDS011;29282;45.656;11.302;2022-08-19T04:20:51;3.13;;;1.30;;
33162;SDS011;29282;45.656;11.302;2022-08-19T04:23:17;1.75;;;1.23;;
33162;SDS011;29282;45.656;11.302;2022-08-19T04:25:43;3.28;;;1.17;;
33162;SDS011;29282;45.656;11.302;2022-08-19T04:28:10;2.67;;;1.45;;
33162;SDS011;29282;45.656;11.302;2022-08-19T04:30:42;4.25;;;1.52;;
33162;SDS011;29282;45.656;11.302;2022-08-19T04:33:13;4.75;;;1.30;;
33162;SDS011;29282;45.656;11.302;2022-08-19T04:35:41;3.25;;;1.40;;
33162;SDS011;29282;45.656;11.302;2022-08-19T04:38:12;1.13;;;1.02;;
33162;SDS011;29282;45.656;11.302;2022-08-19T04:40:42;2.30;;;1.40;;
33162;SDS011;29282;45.656;11.302;2022-08-19T04:43:28;3.40;;;1.30;;
33162;SDS011;29282;45.656;11.302;2022-08-19T04:45:54;3.35;;;1.58;;
33162;SDS011;29282;45.656;11.302;2022-08-19T04:48:23;4.60;;;1.52;;
33162;SDS011;29282;45.656;11.302;2022-08-19T04:50:52;2.88;;;1.40;;
33162;SDS011;29282;45.656;11.302;2022-08-19T04:53:26;3.58;;;1.38;;
33162;SDS011;29282;45.656;11.302;2022-08-19T04:55:54;3.00;;;1.40;;
33162;SDS011;29282;45.656;11.302;2022-08-19T04:58:21;2.25;;;1.30;;
33162;SDS011;29282;45.656;11.302;2022-08-19T05:00:46;3.40;;;1.38;;
33162;SDS011;29282;45.656;11.302;2022-08-19T05:03:12;3.03;;;1.25;;
33162;SDS011;29282;45.656;11.302;2022-08-19T05:05:41;4.28;;;1.27;;
33162;SDS011;29282;45.656;11.302;2022-08-19T05:08:07;3.00;;;1.58;;
33162;SDS011;29282;45.656;11.302;2022-08-19T05:10:35;1.65;;;1.10;;
33162;SDS011;29282;45.656;11.302;2022-08-19T05:13:03;2.05;;;1.20;;
33162;SDS011;29282;45.656;11.302;2022-08-19T05:15:29;4.00;;;1.20;;
33162;SDS011;29282;45.656;11.302;2022-08-19T05:17:55;2.72;;;1.30;;
33162;SDS011;29282;45.656;11.302;2022-08-19T05:20:41;3.08;;;1.25;;
33162;SDS011;29282;45.656;11.302;2022-08-19T05:23:25;2.10;;;1.40;;
33162;SDS011;29282;45.656;11.302;2022-08-19T05:25:50;4.22;;;1.38;;
33162;SDS011;29282;45.656;11.302;2022-08-19T05:28:17;1.60;;;0.95;;
33162;SDS011;29282;45.656;11.302;2022-08-19T05:30:43;4.70;;;1.42;;
33162;SDS011;29282;45.656;11.302;2022-08-19T05:33:10;3.83;;;1.20;;
33162;SDS011;29282;45.656;11.302;2022-08-19T05:35:36;3.10;;;1.25;;
33162;SDS011;29282;45.656;11.302;2022-08-19T05:38:07;2.10;;;1.27;;
33162;SDS011;29282;45.656;11.302;2022-08-19T05:40:39;2.67;;;1.10;;
33162;SDS011;29282;45.656;11.302;2022-08-19T05:43:05;4.30;;;1.48;;
33162;SDS011;29282;45.656;11.302;2022-08-19T05:45:32;2.92;;;1.38;;
33162;SDS011;29282;45.656;11.302;2022-08-19T05:48:02;2.42;;;1.42;;
33162;SDS011;29282;45.656;11.302;2022-08-19T05:50:28;2.67;;;1.10;;
33162;SDS011;29282;45.656;11.302;2022-08-19T05:52:54;1.92;;;1.10;;
33162;SDS011;29282;45.656;11.302;2022-08-19T05:55:20;1.63;;;0.95;;
33162;SDS011;29282;45.656;11.302;2022-08-19T05:57:46;1.77;;;1.02;;
33162;SDS011;29282;45.656;11.302;2022-08-19T06:00:12;3.47;;;1.27;;
33162;SDS011;29282;45.656;11.302;2022-08-19T06:02:39;2.20;;;1.40;;
33162;SDS011;29282;45.656;11.302;2022-08-19T06:05:05;3.17;;;1.58;;
33162;SDS011;29282;45.656;11.302;2022-08-19T06:07:34;3.38;;;1.30;;
33162;SDS011;29282;45.656;11.302;2022-08-19T06:10:02;2.47;;;1.30;;
33162;SDS011;29282;45.656;11.302;2022-08-19T06:12:30;2.67;;;1.17;;
33162;SDS011;29282;45.656;11.302;2022-08-19T06:14:59;3.22;;;1.17;;
33162;SDS011;29282;45.656;11.302;2022-08-19T06:17:26;2.20;;;1.00;;
33162;SDS011;29282;45.656;11.302;2022-08-19T06:19:52;1.75;;;1.17;;
33162;SDS011;29282;45.656;11.302;2022-08-19T06:22:18;2.03;;;1.27;;
33162;SDS011;29282;45.656;11.302;2022-08-19T06:24:43;4.82;;;1.27;;
33162;SDS011;29282;45.656;11.302;2022-08-19T06:27:09;1.77;;;1.40;;
33162;SDS011;29282;45.656;11.302;2022-08-19T06:29:34;1.83;;;1.10;;
33162;SDS011;29282;45.656;11.302;2022-08-19T06:32:01;2.00;;;1.23;;
33162;SDS011;29282;45.656;11.302;2022-08-19T06:34:28;4.97;;;1.45;;
33162;SDS011;29282;45.656;11.302;2022-08-19T06:36:56;2.55;;;1.00;;
33162;SDS011;29282;45.656;11.302;2022-08-19T06:39:28;5.00;;;1.42;;
33162;SDS011;29282;45.656;11.302;2022-08-19T06:41:59;1.85;;;1.10;;
33162;SDS011;29282;45.656;11.302;2022-08-19T06:44:29;1.40;;;1.20;;
33162;SDS011;29282;45.656;11.302;2022-08-19T06:47:00;2.95;;;1.48;;
33162;SDS011;29282;45.656;11.302;2022-08-19T06:49:27;1.90;;;1.23;;
33162;SDS011;29282;45.656;11.302;2022-08-19T06:51:55;3.88;;;1.30;;
33162;SDS011;29282;45.656;11.302;2022-08-19T06:54:22;2.85;;;1.25;;
33162;SDS011;29282;45.656;11.302;2022-08-19T06:56:48;8.27;;;1.52;;
33162;SDS011;29282;45.656;11.302;2022-08-19T06:59:15;5.20;;;1.38;;
33162;SDS011;29282;45.656;11.302;2022-08-19T07:01:50;2.15;;;1.15;;
33162;SDS011;29282;45.656;11.302;2022-08-19T07:04:22;6.82;;;1.70;;
33162;SDS011;29282;45.656;11.302;2022-08-19T07:06:49;5.07;;;1.67;;
33162;SDS011;29282;45.656;11.302;2022-08-19T07:09:16;5.50;;;1.60;;
33162;SDS011;29282;45.656;11.302;2022-08-19T07:11:43;5.68;;;1.58;;
33162;SDS011;29282;45.656;11.302;2022-08-19T07:14:13;9.63;;;1.50;;
33162;SDS011;29282;45.656;11.302;2022-08-19T07:16:39;6.03;;;1.67;;
33162;SDS011;29282;45.656;11.302;2022-08-19T07:19:05;13.88;;;1.40;;
33162;SDS011;29282;45.656;11.302;2022-08-19T07:21:31;3.55;;;1.52;;
33162;SDS011;29282;45.656;11.302;2022-08-19T07:23:58;8.75;;;1.70;;
33162;SDS011;29282;45.656;11.302;2022-08-19T07:26:26;2.53;;;1.25;;
33162;SDS011;29282;45.656;11.302;2022-08-19T07:28:54;5.63;;;1.50;;
33162;SDS011;29282;45.656;11.302;2022-08-19T07:31:22;4.60;;;1.65;;
33162;SDS011;29282;45.656;11.302;2022-08-19T07:33:50;6.47;;;1.95;;
33162;SDS011;29282;45.656;11.302;2022-08-19T07:36:20;6.93;;;1.63;;
33162;SDS011;29282;45.656;11.302;2022-08-19T07:38:50;10.10;;;2.00;;
33162;SDS011;29282;45.656;11.302;2022-08-19T07:41:23;6.30;;;1.70;;
33162;SDS011;29282;45.656;11.302;2022-08-19T07:43:51;5.63;;;1.60;;
33162;SDS011;29282;45.656;11.302;2022-08-19T07:46:17;4.35;;;1.63;;
33162;SDS011;29282;45.656;11.302;2022-08-19T07:48:45;3.60;;;1.70;;
33162;SDS011;29282;45.656;11.302;2022-08-19T07:51:12;7.07;;;1.50;;
33162;SDS011;29282;45.656;11.302;2022-08-19T07:53:39;7.00;;;1.70;;
33162;SDS011;29282;45.656;11.302;2022-08-19T07:56:04;4.97;;;1.55;;
33162;SDS011;29282;45.656;11.302;2022-08-19T07:58:31;4.57;;;1.90;;
33162;SDS011;29282;45.656;11.302;2022-08-19T08:00:59;3.55;;;1.40;;
33162;SDS011;29282;45.656;11.302;2022-08-19T08:03:26;5.93;;;1.70;;
33162;SDS011;29282;45.656;11.302;2022-08-19T08:06:11;6.78;;;1.60;;
33162;SDS011;29282;45.656;11.302;2022-08-19T08:08:57;3.65;;;1.42;;
33162;SDS011;29282;45.656;11.302;2022-08-19T08:11:36;5.88;;;1.90;;
33162;SDS011;29282;45.656;11.302;2022-08-19T08:14:06;6.75;;;1.67;;
33162;SDS011;29282;45.656;11.302;2022-08-19T08:16:34;4.22;;;1.70;;
33162;SDS011;29282;45.656;11.302;2022-08-19T08:19:03;4.03;;;1.60;;
33162;SDS011;29282;45.656;11.302;2022-08-19T08:21:30;5.22;;;1.63;;
33162;SDS011;29282;45.656;11.302;2022-08-19T08:23:57;6.53;;;1.48;;
33162;SDS011;29282;45.656;11.302;2022-08-19T08:26:23;5.60;;;1.70;;
33162;SDS011;29282;45.656;11.302;2022-08-19T08:28:49;7.53;;;1.70;;
33162;SDS011;29282;45.656;11.302;2022-08-19T08:31:15;6.03;;;1.90;;
33162;SDS011;29282;45.656;11.302;2022-08-19T08:33:41;6.35;;;1.75;;
33162;SDS011;29282;45.656;11.302;2022-08-19T08:36:07;9.32;;;2.10;;
33162;SDS011;29282;45.656;11.302;2022-08-19T08:38:36;4.85;;;1.63;;
33162;SDS011;29282;45.656;11.302;2022-08-19T08:41:05;7.88;;;2.47;;
33162;SDS011;29282;45.656;11.302;2022-08-19T08:43:54;8.82;;;2.42;;
33162;SDS011;29282;45.656;11.302;2022-08-19T08:48:54;13.63;;;6.13;;
33162;SDS011;29282;45.656;11.302;2022-08-19T08:51:44;21.55;;;6.95;;
33162;SDS011;29282;45.656;11.302;2022-08-19T08:54:14;18.02;;;10.98;;
33162;SDS011;29282;45.656;11.302;2022-08-19T08:56:43;30.00;;;16.42;;
33162;SDS011;29282;45.656;11.302;2022-08-19T08:59:21;37.20;;;22.75;;
33162;SDS011;29282;45.656;11.302;2022-08-19T09:01:53;40.80;;;24.08;;
33162;SDS011;29282;45.656;11.302;2022-08-19T09:04:18;44.70;;;25.30;;
33162;SDS011;29282;45.656;11.302;2022-08-19T09:09:47;76.28;;;43.78;;
33162;SDS011;29282;45.656;11.302;2022-08-19T09:12:38;105.47;;;56.05;;
33162;SDS011;29282;45.656;11.302;2022-08-19T09:15:09;104.45;;;53.42;;
33162;SDS011;29282;45.656;11.302;2022-08-19T09:17:36;134.25;;;66.00;;
33162;SDS011;29282;45.656;11.302;2022-08-19T09:22:32;141.18;;;64.05;;
33162;SDS011;29282;45.656;11.302;2022-08-19T09:24:58;153.70;;;62.92;;
33162;SDS011;29282;45.656;11.302;2022-08-19T09:27:25;163.30;;;66.32;;
33162;SDS011;29282;45.656;11.302;2022-08-19T09:29:54;168.55;;;64.43;;
33162;SDS011;29282;45.656;11.302;2022-08-19T09:32:21;159.45;;;57.63;;
33162;SDS011;29282;45.656;11.302;2022-08-19T09:34:47;154.02;;;51.13;;
33162;SDS011;29282;45.656;11.302;2022-08-19T09:37:13;182.63;;;59.05;;
33162;SDS011;29282;45.656;11.302;2022-08-19T09:39:42;199.80;;;72.03;;
33162;SDS011;29282;45.656;11.302;2022-08-19T09:42:08;233.07;;;83.40;;
33162;SDS011;29282;45.656;11.302;2022-08-19T09:44:39;249.70;;;83.65;;
33162;SDS011;29282;45.656;11.302;2022-08-19T09:47:08;274.58;;;91.60;;
33162;SDS011;29282;45.656;11.302;2022-08-19T09:49:36;270.00;;;95.63;;
33162;SDS011;29282;45.656;11.302;2022-08-19T09:52:02;283.52;;;97.80;;
33162;SDS011;29282;45.656;11.302;2022-08-19T09:54:28;302.63;;;100.75;;
33162;SDS011;29282;45.656;11.302;2022-08-19T09:56:54;319.17;;;99.35;;
33162;SDS011;29282;45.656;11.302;2022-08-19T09:59:25;307.95;;;92.30;;
33162;SDS011;29282;45.656;11.302;2022-08-19T10:01:52;301.10;;;88.05;;
33162;SDS011;29282;45.656;11.302;2022-08-19T10:04:17;326.25;;;99.25;;
33162;SDS011;29282;45.656;11.302;2022-08-19T10:06:43;350.13;;;98.97;;
33162;SDS011;29282;45.656;11.302;2022-08-19T10:09:09;350.35;;;109.82;;
33162;SDS011;29282;45.656;11.302;2022-08-19T10:11:38;348.42;;;104.75;;
33162;SDS011;29282;45.656;11.302;2022-08-19T10:14:05;333.65;;;93.15;;
33162;SDS011;29282;45.656;11.302;2022-08-19T10:16:31;343.42;;;85.05;;
33162;SDS011;29282;45.656;11.302;2022-08-19T10:18:58;331.15;;;78.95;;
33162;SDS011;29282;45.656;11.302;2022-08-19T10:21:25;315.02;;;62.70;;
33162;SDS011;29282;45.656;11.302;2022-08-19T10:23:54;303.92;;;60.90;;
33162;SDS011;29282;45.656;11.302;2022-08-19T10:26:26;302.83;;;60.15;;
33162;SDS011;29282;45.656;11.302;2022-08-19T10:28:54;308.38;;;61.85;;
33162;SDS011;29282;45.656;11.302;2022-08-19T10:31:21;297.92;;;58.40;;
33162;SDS011;29282;45.656;11.302;2022-08-19T10:33:50;293.88;;;56.92;;
33162;SDS011;29282;45.656;11.302;2022-08-19T10:36:20;324.27;;;60.83;;
33162;SDS011;29282;45.656;11.302;2022-08-19T10:38:51;319.15;;;61.78;;
33162;SDS011;29282;45.656;11.302;2022-08-19T10:41:19;328.08;;;61.35;;
33162;SDS011;29282;45.656;11.302;2022-08-19T10:43:50;298.77;;;58.45;;
33162;SDS011;29282;45.656;11.302;2022-08-19T10:46:19;320.75;;;61.17;;
33162;SDS011;29282;45.656;11.302;2022-08-19T10:48:47;323.00;;;65.80;;
33162;SDS011;29282;45.656;11.302;2022-08-19T10:51:13;316.48;;;62.15;;
33162;SDS011;29282;45.656;11.302;2022-08-19T10:53:57;300.05;;;53.05;;
33162;SDS011;29282;45.656;11.302;2022-08-19T10:56:23;300.67;;;49.35;;
33162;SDS011;29282;45.656;11.302;2022-08-19T10:59:08;318.73;;;52.70;;
33162;SDS011;29282;45.656;11.302;2022-08-19T11:01:34;297.00;;;48.40;;
33162;SDS011;29282;45.656;11.302;2022-08-19T11:04:01;295.75;;;51.65;;
33162;SDS011;29282;45.656;11.302;2022-08-19T11:06:28;305.80;;;52.50;;
33162;SDS011;29282;45.656;11.302;2022-08-19T11:08:56;321.73;;;49.70;;
33162;SDS011;29282;45.656;11.302;2022-08-19T11:11:21;288.92;;;47.05;;
33162;SDS011;29282;45.656;11.302;2022-08-19T11:13:48;319.17;;;48.63;;
33162;SDS011;29282;45.656;11.302;2022-08-19T11:16:16;285.38;;;45.40;;
33162;SDS011;29282;45.656;11.302;2022-08-19T11:18:45;312.73;;;49.55;;
33162;SDS011;29282;45.656;11.302;2022-08-19T11:23:47;288.20;;;45.78;;
33162;SDS011;29282;45.656;11.302;2022-08-19T11:26:15;280.05;;;46.75;;
33162;SDS011;29282;45.656;11.302;2022-08-19T11:28:43;277.17;;;46.55;;
33162;SDS011;29282;45.656;11.302;2022-08-19T11:31:10;274.10;;;43.67;;
33162;SDS011;29282;45.656;11.302;2022-08-19T11:33:45;260.27;;;40.55;;
33162;SDS011;29282;45.656;11.302;2022-08-19T11:36:11;253.18;;;43.05;;
33162;SDS011;29282;45.656;11.302;2022-08-19T11:38:38;248.80;;;40.33;;
33162;SDS011;29282;45.656;11.302;2022-08-19T11:41:05;249.20;;;39.60;;
33162;SDS011;29282;45.656;11.302;2022-08-19T11:43:35;233.60;;;37.35;;
33162;SDS011;29282;45.656;11.302;2022-08-19T11:46:05;218.30;;;36.67;;
33162;SDS011;29282;45.656;11.302;2022-08-19T11:48:32;231.55;;;38.60;;
33162;SDS011;29282;45.656;11.302;2022-08-19T11:50:59;208.85;;;36.42;;
33162;SDS011;29282;45.656;11.302;2022-08-19T11:53:31;209.82;;;36.67;;
33162;SDS011;29282;45.656;11.302;2022-08-19T11:56:01;223.10;;;36.40;;
33162;SDS011;29282;45.656;11.302;2022-08-19T11:58:28;208.50;;;34.15;;
33162;SDS011;29282;45.656;11.302;2022-08-19T12:00:54;203.57;;;33.97;;
33162;SDS011;29282;45.656;11.302;2022-08-19T12:03:20;207.52;;;34.10;;
33162;SDS011;29282;45.656;11.302;2022-08-19T12:05:45;182.65;;;31.45;;
33162;SDS011;29282;45.656;11.302;2022-08-19T12:08:12;185.27;;;31.92;;
33162;SDS011;29282;45.656;11.302;2022-08-19T12:10:38;169.57;;;30.63;;
33162;SDS011;29282;45.656;11.302;2022-08-19T12:13:04;171.55;;;29.60;;
33162;SDS011;29282;45.656;11.302;2022-08-19T12:15:34;181.38;;;30.48;;
33162;SDS011;29282;45.656;11.302;2022-08-19T12:18:06;163.88;;;28.23;;
33162;SDS011;29282;45.656;11.302;2022-08-19T12:20:34;163.55;;;28.58;;
33162;SDS011;29282;45.656;11.302;2022-08-19T12:23:00;156.90;;;27.90;;
33162;SDS011;29282;45.656;11.302;2022-08-19T12:25:26;156.40;;;26.38;;
33162;SDS011;29282;45.656;11.302;2022-08-19T12:27:52;149.13;;;26.23;;
33162;SDS011;29282;45.656;11.302;2022-08-19T12:30:17;129.50;;;24.15;;
33162;SDS011;29282;45.656;11.302;2022-08-19T12:32:43;113.35;;;23.58;;
33162;SDS011;29282;45.656;11.302;2022-08-19T12:35:09;124.18;;;24.33;;
33162;SDS011;29282;45.656;11.302;2022-08-19T12:37:35;134.25;;;24.42;;
33162;SDS011;29282;45.656;11.302;2022-08-19T12:40:01;123.03;;;22.58;;
33162;SDS011;29282;45.656;11.302;2022-08-19T12:42:28;124.25;;;23.02;;
33162;SDS011;29282;45.656;11.302;2022-08-19T12:44:54;121.35;;;22.58;;
33162;SDS011;29282;45.656;11.302;2022-08-19T12:47:20;124.15;;;21.98;;
33162;SDS011;29282;45.656;11.302;2022-08-19T12:49:46;104.13;;;20.20;;
33162;SDS011;29282;45.656;11.302;2022-08-19T12:52:13;108.22;;;20.52;;
33162;SDS011;29282;45.656;11.302;2022-08-19T12:54:40;107.15;;;18.63;;
33162;SDS011;29282;45.656;11.302;2022-08-19T12:57:08;108.32;;;18.88;;
33162;SDS011;29282;45.656;11.302;2022-08-19T12:59:35;100.03;;;17.85;;
33162;SDS011;29282;45.656;11.302;2022-08-19T13:02:03;98.00;;;17.05;;
33162;SDS011;29282;45.656;11.302;2022-08-19T13:04:31;86.93;;;16.38;;
33162;SDS011;29282;45.656;11.302;2022-08-19T13:07:06;84.05;;;16.23;;
33162;SDS011;29282;45.656;11.302;2022-08-19T13:09:33;73.50;;;15.73;;
33162;SDS011;29282;45.656;11.302;2022-08-19T13:11:59;78.55;;;15.57;;
33162;SDS011;29282;45.656;11.302;2022-08-19T13:14:28;77.50;;;15.73;;
33162;SDS011;29282;45.656;11.302;2022-08-19T13:16:56;78.72;;;15.02;;
33162;SDS011;29282;45.656;11.302;2022-08-19T13:19:22;75.40;;;14.60;;
33162;SDS011;29282;45.656;11.302;2022-08-19T13:21:49;66.78;;;14.10;;
33162;SDS011;29282;45.656;11.302;2022-08-19T13:24:15;72.32;;;12.60;;
33162;SDS011;29282;45.656;11.302;2022-08-19T13:26:42;54.22;;;11.60;;
33162;SDS011;29282;45.656;11.302;2022-08-19T13:29:08;50.78;;;11.55;;
33162;SDS011;29282;45.656;11.302;2022-08-19T13:31:51;52.50;;;11.93;;
33162;SDS011;29282;45.656;11.302;2022-08-19T13:34:35;56.87;;;11.63;;
33162;SDS011;29282;45.656;11.302;2022-08-19T13:37:02;49.22;;;10.18;;
33162;SDS011;29282;45.656;11.302;2022-08-19T13:39:29;45.10;;;9.57;;
33162;SDS011;29282;45.656;11.302;2022-08-19T13:41:57;39.75;;;9.82;;
33162;SDS011;29282;45.656;11.302;2022-08-19T13:44:23;38.42;;;9.25;;
33162;SDS011;29282;45.656;11.302;2022-08-19T13:46:49;38.90;;;8.27;;
33162;SDS011;29282;45.656;11.302;2022-08-19T13:49:18;37.83;;;9.18;;
33162;SDS011;29282;45.656;11.302;2022-08-19T13:51:44;40.13;;;8.98;;
33162;SDS011;29282;45.656;11.302;2022-08-19T13:54:10;38.03;;;8.23;;
33162;SDS011;29282;45.656;11.302;2022-08-19T13:56:41;33.38;;;7.97;;
33162;SDS011;29282;45.656;11.302;2022-08-19T13:59:08;42.58;;;8.82;;
33162;SDS011;29282;45.656;11.302;2022-08-19T14:01:33;32.95;;;7.50;;
33162;SDS011;29282;45.656;11.302;2022-08-19T14:03:59;28.35;;;7.82;;
33162;SDS011;29282;45.656;11.302;2022-08-19T14:06:25;40.22;;;7.97;;
33162;SDS011;29282;45.656;11.302;2022-08-19T14:08:51;40.75;;;7.80;;
33162;SDS011;29282;45.656;11.302;2022-08-19T14:11:17;34.85;;;7.85;;
33162;SDS011;29282;45.656;11.302;2022-08-19T14:13:43;32.03;;;7.18;;
33162;SDS011;29282;45.656;11.302;2022-08-19T14:16:12;32.15;;;7.50;;
33162;SDS011;29282;45.656;11.302;2022-08-19T14:18:39;29.58;;;7.28;;
33162;SDS011;29282;45.656;11.302;2022-08-19T14:21:05;32.13;;;7.60;;
33162;SDS011;29282;45.656;11.302;2022-08-19T14:23:32;25.75;;;6.72;;
33162;SDS011;29282;45.656;11.302;2022-08-19T14:26:04;37.25;;;6.95;;
33162;SDS011;29282;45.656;11.302;2022-08-19T14:28:34;31.70;;;6.90;;
33162;SDS011;29282;45.656;11.302;2022-08-19T14:31:00;27.67;;;7.03;;
33162;SDS011;29282;45.656;11.302;2022-08-19T14:33:26;24.80;;;6.07;;
33162;SDS011;29282;45.656;11.302;2022-08-19T14:35:51;26.63;;;6.55;;
33162;SDS011;29282;45.656;11.302;2022-08-19T14:38:19;27.90;;;6.63;;